createdAt,value
2022-10-10T00:01:27.267Z,60.70
2022-10-10T00:03:55.063Z,67.57
2022-10-10T00:06:22.989Z,65.87
2022-10-10T00:08:50.932Z,63.27
2022-10-10T00:11:19.796Z,66.57
2022-10-10T00:13:49.239Z,63.43
2022-10-10T00:16:17.603Z,56.60
2022-10-10T00:18:45.233Z,65.17
2022-10-10T00:21:13.065Z,59.30
2022-10-10T00:23:40.853Z,56.80
2022-10-10T00:26:09.402Z,52.43
2022-10-10T00:28:38.408Z,55.27
2022-10-10T00:31:08.821Z,64.47
2022-10-10T00:33:36.820Z,61.97
2022-10-10T00:36:04.557Z,59.27
2022-10-10T00:38:32.603Z,64.20
2022-10-10T00:41:00.342Z,68.47
2022-10-10T00:43:28.411Z,67.03
2022-10-10T00:45:56.335Z,63.20
2022-10-10T00:48:26.449Z,53.10
2022-10-10T00:50:56.798Z,60.60
2022-10-10T00:53:27.750Z,59.37
2022-10-10T00:55:55.674Z,77.17
2022-10-10T00:58:23.826Z,67.97
2022-10-10T01:00:51.802Z,66.83
2022-10-10T01:03:19.533Z,66.30
2022-10-10T01:05:48.841Z,73.77
2022-10-10T01:08:17.374Z,62.63
2022-10-10T01:10:55.816Z,73.00
2022-10-10T01:13:29.518Z,68.93
2022-10-10T01:16:01.354Z,66.67
2022-10-10T01:18:34.778Z,65.70
2022-10-10T01:21:10.154Z,56.23
2022-10-10T01:24:19.082Z,65.90
2022-10-10T01:27:11.399Z,60.80
2022-10-10T01:29:43.816Z,56.20
2022-10-10T01:32:15.618Z,61.03
2022-10-10T01:34:50.783Z,77.67
2022-10-10T01:37:20.070Z,63.40
2022-10-10T01:39:55.700Z,58.20
2022-10-10T01:42:26.904Z,61.70
2022-10-10T01:44:56.235Z,61.37
2022-10-10T01:47:24.239Z,57.87
2022-10-10T01:49:54.566Z,58.07
2022-10-10T01:52:31.233Z,61.80
2022-10-10T01:55:10.053Z,75.37
2022-10-10T01:57:44.648Z,53.70
2022-10-10T02:00:14.792Z,56.60
2022-10-10T02:02:46.444Z,68.90
2022-10-10T02:05:19.072Z,61.23
2022-10-10T02:07:50.257Z,59.37
2022-10-10T02:10:23.138Z,66.93
2022-10-10T02:12:51.436Z,56.53
2022-10-10T02:15:23.215Z,60.20
2022-10-10T02:17:51.412Z,61.50
2022-10-10T02:20:22.116Z,66.30
2022-10-10T02:22:51.455Z,65.20
2022-10-10T02:25:24.080Z,64.73
2022-10-10T02:27:58.972Z,70.07
2022-10-10T02:30:28.074Z,60.80
2022-10-10T02:32:59.055Z,82.50
2022-10-10T02:35:31.347Z,59.40
2022-10-10T02:37:59.955Z,56.90
2022-10-10T02:40:29.984Z,66.73
2022-10-10T02:42:59.634Z,68.77
2022-10-10T02:45:30.928Z,67.00
2022-10-10T02:47:58.676Z,69.93
2022-10-10T02:50:26.945Z,60.67
2022-10-10T02:52:54.871Z,67.23
2022-10-10T02:55:22.496Z,73.10
2022-10-10T02:57:50.110Z,65.07
2022-10-10T03:00:18.126Z,57.87
2022-10-10T03:02:47.130Z,60.07
2022-10-10T03:05:15.258Z,67.93
2022-10-10T03:07:42.799Z,61.40
2022-10-10T03:10:10.819Z,53.10
2022-10-10T03:12:38.421Z,55.13
2022-10-10T03:15:11.389Z,55.77
2022-10-10T03:17:39.386Z,60.03
2022-10-10T03:20:09.654Z,58.60
2022-10-10T03:22:37.143Z,57.87
2022-10-10T03:25:05.601Z,70.07
2022-10-10T03:27:33.134Z,54.90
2022-10-10T03:30:00.705Z,75.43
2022-10-10T03:32:28.237Z,68.90
2022-10-10T03:34:55.808Z,63.73
2022-10-10T03:37:24.875Z,57.17
2022-10-10T03:39:52.503Z,73.37
2022-10-10T03:42:20.031Z,65.17
2022-10-10T03:44:47.535Z,58.40
2022-10-10T03:47:15.043Z,57.23
2022-10-10T03:49:42.536Z,65.20
2022-10-10T03:52:10.055Z,63.23
2022-10-10T03:54:39.022Z,85.80
2022-10-10T03:57:06.587Z,69.10
2022-10-10T03:59:34.113Z,59.20
2022-10-10T04:02:01.641Z,55.07
2022-10-10T04:04:29.160Z,65.17
2022-10-10T04:06:56.669Z,65.53
2022-10-10T04:09:24.225Z,77.93
2022-10-10T04:11:53.141Z,69.60
2022-10-10T04:14:20.751Z,68.03
2022-10-10T04:16:48.355Z,82.43
2022-10-10T04:19:15.885Z,672.97
2022-10-10T04:21:43.417Z,61.83
2022-10-10T04:24:11.457Z,461.87
2022-10-10T04:26:38.965Z,999.90
2022-10-10T04:29:08.300Z,999.90
2022-10-10T04:31:35.915Z,999.90
2022-10-10T04:34:03.844Z,999.90
2022-10-10T04:36:31.854Z,999.90
2022-10-10T04:38:59.375Z,996.07
2022-10-10T04:41:26.895Z,999.90
2022-10-10T04:43:54.424Z,999.90
2022-10-10T04:46:23.291Z,955.70
2022-10-10T04:48:50.872Z,999.90
2022-10-10T04:51:19.680Z,999.90
2022-10-10T04:53:50.440Z,999.90
2022-10-10T04:56:18.358Z,981.00
2022-10-10T04:58:45.869Z,999.90
2022-10-10T05:01:13.488Z,999.90
2022-10-10T05:03:42.372Z,999.90
2022-10-10T05:06:10.264Z,999.90
2022-10-10T05:08:37.858Z,999.90
2022-10-10T05:11:05.464Z,999.90
2022-10-10T05:13:33.098Z,999.90
2022-10-10T05:16:01.110Z,999.90
2022-10-10T05:18:28.618Z,999.90
2022-10-10T05:21:03.258Z,999.90
2022-10-10T05:23:31.954Z,999.90
2022-10-10T05:25:59.488Z,999.90
2022-10-10T05:28:27.203Z,999.90
2022-10-10T05:30:54.723Z,999.90
2022-10-10T05:33:22.319Z,999.90
2022-10-10T05:35:49.899Z,999.90
2022-10-10T05:38:18.900Z,999.90
2022-10-10T05:40:46.416Z,999.90
2022-10-10T05:43:13.948Z,999.90
2022-10-10T05:45:41.448Z,999.90
2022-10-10T05:48:08.985Z,999.90
2022-10-10T05:50:38.823Z,999.90
2022-10-10T05:53:06.744Z,999.90
2022-10-10T05:55:36.565Z,999.90
2022-10-10T05:58:04.118Z,999.90
2022-10-10T06:00:31.665Z,999.90
2022-10-10T06:02:59.325Z,999.90
2022-10-10T06:05:26.947Z,999.90
2022-10-10T06:08:12.213Z,999.90
2022-10-10T06:10:43.131Z,999.90
2022-10-10T06:13:11.013Z,999.90
2022-10-10T06:15:38.544Z,999.90
2022-10-10T06:18:07.419Z,999.90
2022-10-10T06:20:35.806Z,999.90
2022-10-10T06:23:03.684Z,999.90
2022-10-10T06:25:43.446Z,999.90
2022-10-10T06:28:13.095Z,999.90
2022-10-10T06:30:41.573Z,999.90
2022-10-10T06:33:09.162Z,999.90
2022-10-10T06:35:39.972Z,999.90
2022-10-10T06:38:07.481Z,999.90
2022-10-10T06:40:35.056Z,999.90
2022-10-10T06:43:04.452Z,999.90
2022-10-10T06:45:36.795Z,999.90
2022-10-10T06:48:04.577Z,999.90
2022-10-10T06:50:32.075Z,999.90
2022-10-10T06:53:00.108Z,999.90
2022-10-10T06:55:27.759Z,999.90
2022-10-10T06:57:55.415Z,999.90
2022-10-10T07:00:22.976Z,999.90
2022-10-10T07:02:52.602Z,999.90
2022-10-10T07:05:20.346Z,999.90
2022-10-10T07:07:47.891Z,999.90
2022-10-10T07:10:16.567Z,999.90
2022-10-10T07:12:45.167Z,999.90
2022-10-10T07:15:13.408Z,999.90
2022-10-10T07:17:40.972Z,999.90
2022-10-10T07:20:10.661Z,999.90
2022-10-10T07:22:38.412Z,999.90
2022-10-10T07:25:06.664Z,999.90
2022-10-10T07:27:34.200Z,999.90
2022-10-10T07:30:01.686Z,999.90
2022-10-10T07:32:29.224Z,999.90
2022-10-10T07:34:58.276Z,999.90
2022-10-10T07:37:27.397Z,999.90
2022-10-10T07:39:55.011Z,999.90
2022-10-10T07:42:22.729Z,999.90
2022-10-10T07:44:50.315Z,999.90
2022-10-10T07:47:17.881Z,999.90
2022-10-10T07:49:45.499Z,999.90
2022-10-10T07:52:13.036Z,999.90
2022-10-10T07:54:42.633Z,999.90
2022-10-10T07:57:10.306Z,999.90
2022-10-10T07:59:37.839Z,999.90
2022-10-10T08:02:05.460Z,999.90
2022-10-10T08:04:33.035Z,999.90
2022-10-10T08:07:00.646Z,999.90
2022-10-10T08:09:28.578Z,999.90
2022-10-10T08:11:57.447Z,999.90
2022-10-10T08:14:25.068Z,999.90
2022-10-10T08:16:52.583Z,999.90
2022-10-10T08:19:20.107Z,999.90
2022-10-10T08:21:47.625Z,999.90
2022-10-10T08:24:15.145Z,999.90
2022-10-10T08:26:42.676Z,999.90
2022-10-10T08:29:11.527Z,999.90
2022-10-10T08:31:39.112Z,999.90
2022-10-10T08:34:06.651Z,999.90
2022-10-10T08:36:34.199Z,999.90
2022-10-10T08:39:01.809Z,999.90
2022-10-10T08:41:36.470Z,999.90
2022-10-10T08:44:07.151Z,999.90
2022-10-10T08:46:38.160Z,999.90
2022-10-10T08:49:14.218Z,999.90
2022-10-10T08:51:43.104Z,999.90
2022-10-10T08:54:12.508Z,999.90
2022-10-10T08:56:40.859Z,999.90
2022-10-10T08:59:13.240Z,999.90
2022-10-10T09:02:18.593Z,999.90
2022-10-10T09:04:33.453Z,999.90
2022-10-10T09:07:12.321Z,999.90
2022-10-10T09:09:45.328Z,999.90
2022-10-10T09:12:19.352Z,999.90
2022-10-10T09:14:52.450Z,999.90
2022-10-10T09:17:35.350Z,999.90
2022-10-10T09:20:13.261Z,999.90
2022-10-10T09:22:45.974Z,999.90
2022-10-10T09:25:17.898Z,999.90
2022-10-10T09:27:57.179Z,999.90
2022-10-10T09:30:25.297Z,999.90
2022-10-10T09:32:57.459Z,999.90
2022-10-10T09:35:26.758Z,999.90
2022-10-10T09:37:58.412Z,999.90
2022-10-10T09:40:28.684Z,999.90
2022-10-10T09:42:57.137Z,999.90
2022-10-10T09:45:28.449Z,999.90
2022-10-10T09:47:57.366Z,999.90
2022-10-10T09:50:25.655Z,999.90
2022-10-10T09:52:53.887Z,999.90
2022-10-10T09:55:26.879Z,999.90
2022-10-10T09:57:56.592Z,999.90
2022-10-10T10:00:30.616Z,999.90
2022-10-10T10:03:16.985Z,999.90
2022-10-10T10:05:55.502Z,999.90
2022-10-10T10:08:26.167Z,999.90
2022-10-10T10:10:57.888Z,999.90
2022-10-10T10:13:28.490Z,999.90
2022-10-10T10:16:05.099Z,999.90
2022-10-10T10:18:39.894Z,999.90
2022-10-10T10:21:14.865Z,999.90
2022-10-10T10:23:44.555Z,999.90
2022-10-10T10:26:18.934Z,999.90
2022-10-10T10:28:47.935Z,999.90
2022-10-10T10:31:21.612Z,999.90
2022-10-10T10:33:56.955Z,999.90
2022-10-10T10:36:35.972Z,999.90
2022-10-10T10:39:13.096Z,999.90
2022-10-10T10:41:45.421Z,999.90
2022-10-10T10:44:19.633Z,999.90
2022-10-10T10:46:53.053Z,999.90
2022-10-10T10:49:37.464Z,999.90
2022-10-10T10:52:27.391Z,999.90
2022-10-10T10:55:05.279Z,999.90
2022-10-10T10:58:00.038Z,999.90
2022-10-10T11:05:19.508Z,999.90
2022-10-10T11:06:24.856Z,999.90
2022-10-10T11:09:02.152Z,999.90
2022-10-10T11:11:38.140Z,890.77
2022-10-10T11:14:16.423Z,999.90
2022-10-10T11:16:48.929Z,999.90
2022-10-10T11:19:23.920Z,999.90
2022-10-10T11:21:57.319Z,999.90
2022-10-10T11:24:30.822Z,999.90
2022-10-10T11:27:02.642Z,999.90
2022-10-10T11:29:32.788Z,999.90
2022-10-10T11:32:04.635Z,999.90
2022-10-10T11:34:34.624Z,999.90
2022-10-10T11:37:06.976Z,999.90
2022-10-10T11:39:38.009Z,999.90
2022-10-10T11:42:08.894Z,999.90
2022-10-10T11:44:40.028Z,999.90
2022-10-10T11:47:13.225Z,362.00
2022-10-10T11:49:48.356Z,999.90
2022-10-10T11:52:33.472Z,999.90
2022-10-10T11:55:06.246Z,999.90
2022-10-10T11:57:37.866Z,999.90
2022-10-10T12:00:07.239Z,971.60
2022-10-10T12:02:37.196Z,999.90
2022-10-10T12:05:06.408Z,999.90
2022-10-10T12:07:41.277Z,999.90
2022-10-10T12:10:11.500Z,999.90
2022-10-10T12:12:41.304Z,999.90
2022-10-10T12:15:10.727Z,999.90
2022-10-10T12:17:42.495Z,999.90
2022-10-10T12:20:26.273Z,999.90
2022-10-10T12:23:10.051Z,999.90
2022-10-10T12:25:42.121Z,999.90
2022-10-10T12:28:25.599Z,999.90
2022-10-10T12:31:19.982Z,999.90
2022-10-10T12:34:05.946Z,999.90
2022-10-10T12:36:58.201Z,999.90
2022-10-10T12:39:40.669Z,999.90
2022-10-10T12:42:37.667Z,999.90
2022-10-10T12:45:09.729Z,999.90
2022-10-10T12:48:03.960Z,999.90
2022-10-10T12:50:34.300Z,999.90
2022-10-10T12:53:04.141Z,999.90
2022-10-10T12:55:40.339Z,940.77
2022-10-10T12:58:20.881Z,958.03
2022-10-10T13:00:54.814Z,389.80
2022-10-10T13:03:27.909Z,676.70
2022-10-10T13:05:55.877Z,999.20
2022-10-10T13:08:25.927Z,999.90
2022-10-10T13:11:06.789Z,999.90
2022-10-10T13:13:34.481Z,971.63
2022-10-10T13:16:07.950Z,957.90
2022-10-10T13:18:37.007Z,993.03
2022-10-10T13:21:06.492Z,999.90
2022-10-10T13:23:36.322Z,999.90
2022-10-10T13:26:06.619Z,999.90
2022-10-10T13:28:34.294Z,999.90
2022-10-10T13:31:02.100Z,999.90
2022-10-10T13:33:33.451Z,999.90
2022-10-10T13:36:06.597Z,999.90
2022-10-10T13:38:34.786Z,999.90
2022-10-10T13:41:05.526Z,999.90
2022-10-10T13:43:34.268Z,999.90
2022-10-10T13:46:03.588Z,999.90
2022-10-10T13:48:40.817Z,999.90
2022-10-10T13:51:10.906Z,999.90
2022-10-10T13:53:59.342Z,999.90
2022-10-10T13:56:30.699Z,999.90
2022-10-10T13:59:00.143Z,999.90
2022-10-10T14:01:34.577Z,999.90
2022-10-10T14:04:21.032Z,999.90
2022-10-10T14:06:51.772Z,999.90
2022-10-10T14:09:22.297Z,999.90
2022-10-10T14:11:52.501Z,999.90
2022-10-10T14:14:22.750Z,999.90
2022-10-10T14:16:59.579Z,999.90
2022-10-10T14:19:27.137Z,785.00
2022-10-10T14:21:54.843Z,999.90
2022-10-10T14:24:22.351Z,999.90
2022-10-10T14:26:51.203Z,999.90
2022-10-10T14:29:19.218Z,999.90
2022-10-10T14:31:47.259Z,999.90
2022-10-10T14:34:15.757Z,999.90
2022-10-10T14:36:47.533Z,999.90
2022-10-10T14:39:16.055Z,999.90
2022-10-10T14:41:43.590Z,999.90
2022-10-10T14:44:12.940Z,999.90
2022-10-10T14:46:41.019Z,999.90
2022-10-10T14:49:16.102Z,999.90
2022-10-10T14:51:43.595Z,999.90
2022-10-10T14:54:14.091Z,999.90
2022-10-10T14:57:08.426Z,999.90
2022-10-10T14:59:47.955Z,937.53
2022-10-10T15:02:18.244Z,999.90
2022-10-10T15:04:45.757Z,999.90
2022-10-10T15:07:14.966Z,999.90
2022-10-10T15:09:56.587Z,999.90
2022-10-10T15:12:30.351Z,999.90
2022-10-10T15:14:59.233Z,999.90
2022-10-10T15:17:27.139Z,999.90
2022-10-10T15:19:54.687Z,999.90
2022-10-10T15:22:22.314Z,999.90
2022-10-10T15:24:49.827Z,999.90
2022-10-10T15:27:17.309Z,999.90
2022-10-10T15:29:44.795Z,999.90
2022-10-10T15:32:13.671Z,999.90
2022-10-10T15:34:41.184Z,999.90
2022-10-10T15:37:10.384Z,999.90
2022-10-10T15:39:38.318Z,999.90
2022-10-10T15:42:12.217Z,999.90
2022-10-10T15:44:45.259Z,999.90
2022-10-10T15:47:14.649Z,999.90
2022-10-10T15:49:42.220Z,999.90
2022-10-10T15:52:10.478Z,999.90
2022-10-10T15:54:37.975Z,999.90
2022-10-10T15:57:05.541Z,999.90
2022-10-10T15:59:33.102Z,999.90
2022-10-10T16:02:00.642Z,999.90
2022-10-10T16:04:29.553Z,999.90
2022-10-10T16:07:24.141Z,999.90
2022-10-10T16:09:45.084Z,999.90
2022-10-10T16:12:12.610Z,999.90
2022-10-10T16:14:40.122Z,999.90
2022-10-10T16:17:07.791Z,999.90
2022-10-10T16:19:36.623Z,999.90
2022-10-10T16:22:04.142Z,999.90
2022-10-10T16:24:31.668Z,999.90
2022-10-10T16:27:02.058Z,999.90
2022-10-10T16:29:29.592Z,999.90
2022-10-10T16:31:57.101Z,999.90
2022-10-10T16:34:24.601Z,999.90
2022-10-10T16:36:53.517Z,999.90
2022-10-10T16:39:21.041Z,999.90
2022-10-10T16:41:49.313Z,999.90
2022-10-10T16:44:17.307Z,999.90
2022-10-10T16:46:44.925Z,999.90
2022-10-10T16:49:16.128Z,999.90
2022-10-10T16:51:44.209Z,999.90
2022-10-10T16:54:13.103Z,999.90
2022-10-10T16:56:41.758Z,999.90
2022-10-10T16:59:09.320Z,999.90
2022-10-10T17:01:36.917Z,999.90
2022-10-10T17:04:04.929Z,999.90
2022-10-10T17:06:37.207Z,999.90
2022-10-10T17:09:07.048Z,999.90
2022-10-10T17:11:35.957Z,999.90
2022-10-10T17:14:04.012Z,999.90
2022-10-10T17:17:07.133Z,999.90
2022-10-10T17:19:19.421Z,999.90
2022-10-10T17:21:46.935Z,999.90
2022-10-10T17:24:14.430Z,999.90
2022-10-10T17:26:43.293Z,999.90
2022-10-10T17:29:11.221Z,999.90
2022-10-10T17:31:38.792Z,999.90
2022-10-10T17:34:06.359Z,999.90
2022-10-10T17:36:33.870Z,999.90
2022-10-10T17:39:01.375Z,999.90
2022-10-10T17:41:29.657Z,999.90
2022-10-10T17:43:58.576Z,980.10
2022-10-10T17:46:34.751Z,999.90
2022-10-10T17:49:03.808Z,999.90
2022-10-10T17:51:31.407Z,999.90
2022-10-10T17:53:59.761Z,999.90
2022-10-10T17:56:27.688Z,999.90
2022-10-10T17:58:55.235Z,999.90
2022-10-10T18:01:24.236Z,999.90
2022-10-10T18:03:52.097Z,999.90
2022-10-10T18:06:21.368Z,995.30
2022-10-10T18:08:49.632Z,999.90
2022-10-10T18:11:18.413Z,999.90
2022-10-10T18:13:46.301Z,999.90
2022-10-10T18:16:15.717Z,999.90
2022-10-10T18:18:50.337Z,999.90
2022-10-10T18:21:19.563Z,999.90
2022-10-10T18:23:47.090Z,999.90
2022-10-10T18:26:16.224Z,999.90
2022-10-10T18:28:44.618Z,999.90
2022-10-10T18:31:14.321Z,993.13
2022-10-10T18:33:44.032Z,999.90
2022-10-10T18:36:13.848Z,999.90
2022-10-10T18:38:41.356Z,999.90
2022-10-10T18:41:10.620Z,999.90
2022-10-10T18:43:39.599Z,999.90
2022-10-10T18:46:09.002Z,999.90
2022-10-10T18:48:38.422Z,999.90
2022-10-10T18:51:07.676Z,999.90
2022-10-10T18:53:37.999Z,955.43
2022-10-10T18:56:06.754Z,999.90
2022-10-10T18:58:36.819Z,995.00
2022-10-10T19:01:08.677Z,996.33
2022-10-10T19:03:36.993Z,999.90
2022-10-10T19:06:05.919Z,999.90
2022-10-10T19:08:34.540Z,999.90
2022-10-10T19:11:05.320Z,999.90
2022-10-10T19:13:33.859Z,999.90
2022-10-10T19:16:05.114Z,975.57
2022-10-10T19:18:32.724Z,951.37
2022-10-10T19:21:00.596Z,999.90
2022-10-10T19:23:28.354Z,999.90
2022-10-10T19:25:56.112Z,999.90
2022-10-10T19:28:24.967Z,999.90
2022-10-10T19:30:52.498Z,999.90
2022-10-10T19:33:20.023Z,999.90
2022-10-10T19:35:49.873Z,999.90
2022-10-10T19:38:19.875Z,999.90
2022-10-10T19:40:48.565Z,999.90
2022-10-10T19:43:18.474Z,996.53
2022-10-10T19:45:48.737Z,999.90
2022-10-10T19:48:16.898Z,999.90
2022-10-10T19:50:45.296Z,999.90
2022-10-10T19:53:14.494Z,999.90
2022-10-10T19:55:42.137Z,999.90
2022-10-10T19:58:09.756Z,999.90
2022-10-10T20:00:38.327Z,999.90
2022-10-10T20:03:07.199Z,984.70
2022-10-10T20:05:34.775Z,999.90
2022-10-10T20:08:02.270Z,998.20
2022-10-10T20:10:29.788Z,999.90
2022-10-10T20:12:57.471Z,999.90
2022-10-10T20:15:24.976Z,999.90
2022-10-10T20:17:52.452Z,999.90
2022-10-10T20:20:21.307Z,999.90
2022-10-10T20:22:48.799Z,999.90
2022-10-10T20:25:16.340Z,93.17
2022-10-10T20:27:43.824Z,66.10
2022-10-10T20:30:12.315Z,84.90
2022-10-10T20:32:39.949Z,82.67
2022-10-10T20:35:08.041Z,75.03
2022-10-10T20:37:36.907Z,67.03
2022-10-10T20:40:04.863Z,97.23
2022-10-10T20:42:32.377Z,38.83
2022-10-10T20:44:59.888Z,180.77
2022-10-10T20:47:27.375Z,234.67
2022-10-10T20:49:55.225Z,324.37
2022-10-10T20:52:22.783Z,42.23
2022-10-10T20:54:51.607Z,98.60
2022-10-10T20:57:19.179Z,49.97
2022-10-10T20:59:46.671Z,52.13
2022-10-10T21:02:19.122Z,414.37
2022-10-10T21:04:47.068Z,65.37
2022-10-10T21:07:14.979Z,52.57
2022-10-10T21:09:42.502Z,66.53
2022-10-10T21:12:11.348Z,36.73
2022-10-10T21:14:38.846Z,56.43
2022-10-10T21:17:06.352Z,86.53
2022-10-10T21:19:33.840Z,342.77
2022-10-10T21:22:01.413Z,544.83
2022-10-10T21:24:28.940Z,502.63
2022-10-10T21:26:56.479Z,413.40
2022-10-10T21:29:25.351Z,237.33
2022-10-10T21:31:53.064Z,472.87
2022-10-10T21:34:20.557Z,561.47
2022-10-10T21:36:48.140Z,213.43
2022-10-10T21:39:15.942Z,132.43
2022-10-10T21:41:43.476Z,106.00
2022-10-10T21:44:11.114Z,57.10
2022-10-10T21:46:39.990Z,56.10
2022-10-10T21:49:09.954Z,60.20
2022-10-10T21:51:39.145Z,56.43
2022-10-10T21:54:07.504Z,63.57
2022-10-10T21:56:35.258Z,57.30
2022-10-10T21:59:02.880Z,66.20
2022-10-10T22:01:32.658Z,60.20
2022-10-10T22:04:02.572Z,59.43
2022-10-10T22:06:30.442Z,62.97
2022-10-10T22:08:59.579Z,60.10
2022-10-10T22:11:28.633Z,58.60
2022-10-10T22:13:56.148Z,59.30
2022-10-10T22:16:23.753Z,55.97
2022-10-10T22:18:54.371Z,60.37
2022-10-10T22:21:25.706Z,59.00
2022-10-10T22:23:57.067Z,61.17
2022-10-10T22:26:24.577Z,60.27
2022-10-10T22:28:52.155Z,58.77
2022-10-10T22:31:20.041Z,50.77
2022-10-10T22:33:47.551Z,62.60
2022-10-10T22:36:15.385Z,64.50
2022-10-10T22:38:45.576Z,58.77
2022-10-10T22:41:13.536Z,61.47
2022-10-10T22:43:41.322Z,59.07
2022-10-10T22:46:09.517Z,59.33
2022-10-10T22:48:37.426Z,59.73
2022-10-10T22:51:07.175Z,62.47
2022-10-10T22:53:34.981Z,64.40
2022-10-10T22:56:04.592Z,62.23
2022-10-10T22:58:32.996Z,61.27
2022-10-10T23:01:04.282Z,60.57
2022-10-10T23:03:31.821Z,64.77
2022-10-10T23:05:59.388Z,61.23
2022-10-10T23:08:26.908Z,61.90
2022-10-10T23:10:54.531Z,50.37
2022-10-10T23:13:23.433Z,61.07
2022-10-10T23:15:50.968Z,60.57
2022-10-10T23:18:18.454Z,59.80
2022-10-10T23:20:46.456Z,61.67
2022-10-10T23:23:14.162Z,63.43
2022-10-10T23:25:41.824Z,61.70
2022-10-10T23:28:09.576Z,62.57
2022-10-10T23:30:40.238Z,60.17
2022-10-10T23:33:07.903Z,60.67
2022-10-10T23:35:35.804Z,61.63
2022-10-10T23:38:03.358Z,64.27
2022-10-10T23:40:32.676Z,62.33
2022-10-10T23:43:00.599Z,63.60
2022-10-10T23:45:28.100Z,67.50
2022-10-10T23:47:56.956Z,63.47
2022-10-10T23:50:24.491Z,61.93
2022-10-10T23:52:51.985Z,64.03
2022-10-10T23:55:19.511Z,61.50
2022-10-10T23:57:47.353Z,63.10
